Time;durP1;ratioP1;P1;durP2;ratioP2;P2;SDS_P1;SDS_P2;PMS_P1;PMS_P2;Temp;Humidity;BMP_temperature;BMP_pressure;BME280_temperature;BME280_humidity;BME280_pressure;Samples;Min_cycle;Max_cycle;Signal;HPM_P1;HPM_P2
2023/01/21 00:01:59;;;;;;;7.22;4.43;;;23.60;59.10;;;;;;5071318;28;20365;-69
2023/01/21 00:04:25;;;;;;;7.15;4.35;;;23.60;59.20;;;;;;5071085;28;20047;-70
2023/01/21 00:06:51;;;;;;;11.55;4.55;;;23.60;59.10;;;;;;5070716;28;20021;-70
2023/01/21 00:09:17;;;;;;;5.60;3.67;;;23.50;59.30;;;;;;5070885;28;20095;-69
2023/01/21 00:11:43;;;;;;;7.57;4.28;;;23.40;59.30;;;;;;5086596;28;20040;-69
2023/01/21 00:14:10;;;;;;;5.82;4.60;;;23.40;59.50;;;;;;5071201;28;20037;-69
2023/01/21 00:16:36;;;;;;;7.70;4.30;;;23.40;59.50;;;;;;5070862;28;20040;-69
2023/01/21 00:19:02;;;;;;;6.32;4.18;;;23.30;59.60;;;;;;5071184;28;20041;-69
2023/01/21 00:21:28;;;;;;;10.02;4.43;;;23.40;59.70;;;;;;5070784;28;20389;-70
2023/01/21 00:23:54;;;;;;;7.25;3.92;;;23.30;60.00;;;;;;5071228;28;20028;-70
2023/01/21 00:26:20;;;;;;;3.45;2.78;;;23.30;59.90;;;;;;5070780;28;20508;-70
2023/01/21 00:28:46;;;;;;;10.30;4.35;;;23.50;59.90;;;;;;5073486;28;20029;-69
2023/01/21 00:31:13;;;;;;;7.00;4.25;;;23.50;59.70;;;;;;5073398;28;20044;-70
2023/01/21 00:33:39;;;;;;;6.63;4.45;;;23.40;59.60;;;;;;5073548;28;20560;-69
2023/01/21 00:36:10;;;;;;;6.38;4.25;;;23.40;59.60;;;;;;5074536;28;20119;-69
2023/01/21 00:38:36;;;;;;;7.63;4.45;;;23.40;59.50;;;;;;5074559;28;20469;-70
2023/01/21 00:41:09;;;;;;;9.38;3.95;;;23.50;59.60;;;;;;5074650;28;20055;-70
2023/01/21 00:43:35;;;;;;;7.53;4.10;;;23.40;59.70;;;;;;5074516;28;20373;-69
2023/01/21 00:46:02;;;;;;;9.90;4.03;;;23.50;59.80;;;;;;5074426;28;20115;-70
2023/01/21 00:48:28;;;;;;;6.30;3.63;;;23.40;59.50;;;;;;5074496;28;20028;-70
2023/01/21 00:50:55;;;;;;;9.27;4.70;;;23.50;59.50;;;;;;5074344;28;20135;-70
2023/01/21 00:53:24;;;;;;;5.05;3.25;;;23.50;59.40;;;;;;5074530;28;20115;-68
2023/01/21 00:55:50;;;;;;;6.10;3.35;;;23.40;59.20;;;;;;5074306;28;20021;-70
2023/01/21 00:58:16;;;;;;;6.60;2.88;;;23.40;59.20;;;;;;5083383;28;20039;-69
2023/01/21 01:00:42;;;;;;;5.40;2.90;;;23.50;59.40;;;;;;5094467;28;20027;-70
2023/01/21 01:03:08;;;;;;;5.78;3.25;;;23.40;59.20;;;;;;5094537;28;20115;-70
2023/01/21 01:05:34;;;;;;;4.55;2.42;;;23.40;59.20;;;;;;5094426;28;20039;-70
2023/01/21 01:08:00;;;;;;;6.40;2.85;;;23.40;59.20;;;;;;5094308;28;20760;-70
2023/01/21 01:10:26;;;;;;;6.03;3.28;;;23.30;59.20;;;;;;5094237;28;20473;-70
2023/01/21 01:12:52;;;;;;;5.82;2.92;;;23.30;59.20;;;;;;5094159;28;20071;-70
2023/01/21 01:15:17;;;;;;;6.10;3.45;;;23.30;59.40;;;;;;5093866;28;20030;-70
2023/01/21 01:17:43;;;;;;;6.70;2.90;;;23.30;59.20;;;;;;5094058;28;20032;-70
2023/01/21 01:20:10;;;;;;;2.40;2.17;;;23.40;59.30;;;;;;5094588;28;20031;-70
2023/01/21 01:22:36;;;;;;;4.90;2.30;;;23.40;59.40;;;;;;5094138;28;20119;-70
2023/01/21 01:25:02;;;;;;;3.30;2.25;;;23.40;59.30;;;;;;5094058;28;20059;-70
2023/01/21 01:27:31;;;;;;;3.35;2.00;;;23.40;59.20;;;;;;5092770;28;20028;-70
2023/01/21 01:29:57;;;;;;;4.55;3.72;;;23.60;59.30;;;;;;5092928;28;20357;-70
2023/01/21 01:32:23;;;;;;;3.58;1.30;;;23.40;59.20;;;;;;5093753;28;20044;-70
2023/01/21 01:34:49;;;;;;;2.83;1.70;;;23.40;59.30;;;;;;5093993;28;20064;-70
2023/01/21 01:37:15;;;;;;;1.02;0.93;;;23.40;59.10;;;;;;5093083;28;20412;-70
2023/01/21 01:39:41;;;;;;;1.77;1.65;;;23.40;59.10;;;;;;5091790;28;20032;-70
2023/01/21 01:42:13;;;;;;;2.50;1.83;;;23.50;59.20;;;;;;5092939;28;20070;-70
2023/01/21 01:45:03;;;;;;;5.15;3.22;;;23.40;59.20;;;;;;5061588;28;20067;-70
2023/01/21 01:47:44;;;;;;;4.82;2.90;;;23.40;59.10;;;;;;5073288;28;20072;-70
2023/01/21 01:50:14;;;;;;;7.53;3.55;;;23.40;59.10;;;;;;5073209;28;20036;-70
2023/01/21 01:52:41;;;;;;;5.70;3.53;;;23.50;59.30;;;;;;5073363;28;20119;-70
2023/01/21 01:55:08;;;;;;;6.85;2.60;;;23.40;59.10;;;;;;5073318;28;20025;-70
2023/01/21 01:57:41;;;;;;;6.13;2.42;;;23.30;59.10;;;;;;5073019;28;20036;-70
2023/01/21 02:00:10;;;;;;;8.70;4.10;;;23.30;59.10;;;;;;5073369;28;20036;-70
2023/01/21 02:02:41;;;;;;;6.28;2.55;;;23.30;59.20;;;;;;5072713;28;20529;-70
2023/01/21 02:05:09;;;;;;;3.05;2.10;;;23.30;59.20;;;;;;5072626;28;20024;-70
2023/01/21 02:07:38;;;;;;;5.63;2.88;;;23.40;59.30;;;;;;5069916;28;20064;-70
2023/01/21 02:10:09;;;;;;;5.18;2.70;;;23.30;59.20;;;;;;5072878;28;20059;-70
2023/01/21 02:12:38;;;;;;;3.13;1.48;;;23.30;59.20;;;;;;5072683;28;20033;-70
2023/01/21 02:15:05;;;;;;;2.50;1.10;;;23.40;59.20;;;;;;5072560;28;20033;-70
2023/01/21 02:18:07;;;;;;;2.75;1.70;;;23.40;59.20;;;;;;5072452;28;20429;-70
2023/01/21 02:21:06;;;;;;;6.75;3.30;;;23.40;59.20;;;;;;5030132;28;20052;-70
2023/01/21 02:23:52;;;;;;;5.78;2.78;;;23.30;59.10;;;;;;5025899;28;20038;-70
2023/01/21 02:26:36;;;;;;;4.40;1.08;;;23.30;59.10;;;;;;5012887;28;20449;-70
2023/01/21 02:29:14;;;;;;;0.75;0.75;;;23.30;59.20;;;;;;5030153;28;20780;-70
2023/01/21 02:32:07;;;;;;;0.75;0.63;;;23.40;59.20;;;;;;4997067;28;20049;-70
2023/01/21 02:34:53;;;;;;;4.68;2.45;;;23.30;59.20;;;;;;5030060;28;20042;-70
2023/01/21 02:37:53;;;;;;;7.43;3.72;;;23.30;59.20;;;;;;5029785;28;20359;-70
2023/01/21 02:40:24;;;;;;;2.20;1.02;;;23.30;59.20;;;;;;5029953;28;20524;-70
2023/01/21 02:43:03;;;;;;;7.03;3.75;;;23.30;59.20;;;;;;5013384;28;20121;-70
2023/01/21 02:45:43;;;;;;;1.95;1.65;;;23.30;59.10;;;;;;5029896;28;20061;-70
2023/01/21 02:48:49;;;;;;;4.95;2.30;;;23.30;59.20;;;;;;5029470;28;20044;-70
2023/01/21 02:51:18;;;;;;;3.70;2.22;;;23.20;59.10;;;;;;4970431;28;20122;-70
2023/01/21 02:53:44;;;;;;;7.03;2.88;;;23.30;59.10;;;;;;4970856;28;20060;-70
2023/01/21 02:56:21;;;;;;;4.80;2.30;;;23.30;58.90;;;;;;4977395;28;20045;-70
2023/01/21 02:58:55;;;;;;;3.75;2.80;;;23.10;59.30;;;;;;5009846;28;20128;-70
2023/01/21 03:01:22;;;;;;;7.85;3.33;;;23.20;59.40;;;;;;5009869;28;20044;-70
2023/01/21 03:03:50;;;;;;;8.95;4.85;;;23.20;59.10;;;;;;5009738;28;20044;-70
2023/01/21 03:06:25;;;;;;;3.60;1.40;;;23.30;59.40;;;;;;5017597;28;20419;-70
2023/01/21 03:09:05;;;;;;;10.52;4.80;;;23.20;59.30;;;;;;5028957;28;20064;-70
2023/01/21 03:11:32;;;;;;;4.20;2.15;;;23.30;59.30;;;;;;5029040;28;20046;-70
2023/01/21 03:17:00;;;;;;;11.73;3.90;;;23.30;59.30;;;;;;5029086;28;20056;-70
2023/01/21 03:19:36;;;;;;;6.72;3.67;;;23.30;59.30;;;;;;5029103;28;20081;-70
2023/01/21 03:22:07;;;;;;;7.65;3.65;;;23.10;59.20;;;;;;5029151;28;20067;-70
2023/01/21 03:24:35;;;;;;;13.43;5.05;;;23.30;59.30;;;;;;5012515;28;20401;-70
2023/01/21 03:27:02;;;;;;;11.77;4.65;;;23.20;59.10;;;;;;5068175;28;20452;-70
2023/01/21 03:29:29;;;;;;;8.13;4.45;;;23.20;59.20;;;;;;5091639;28;20032;-70
2023/01/21 03:32:02;;;;;;;9.30;4.28;;;23.20;59.30;;;;;;5091628;28;20120;-70
2023/01/21 03:34:32;;;;;;;8.32;3.42;;;23.10;59.30;;;;;;5091567;28;20085;-70
2023/01/21 03:37:14;;;;;;;8.25;3.45;;;23.10;59.40;;;;;;5091507;28;20028;-70
2023/01/21 03:39:43;;;;;;;7.63;3.53;;;23.20;59.40;;;;;;5091519;28;20067;-70
2023/01/21 03:42:10;;;;;;;7.28;4.70;;;23.00;59.30;;;;;;5091517;28;20024;-70
2023/01/21 03:44:37;;;;;;;7.43;3.50;;;23.10;59.50;;;;;;5091447;28;20034;-70
2023/01/21 03:47:18;;;;;;;8.35;4.53;;;23.00;59.00;;;;;;5091382;28;20615;-70
2023/01/21 03:49:51;;;;;;;9.85;4.32;;;22.90;59.40;;;;;;5091115;28;20032;-70
2023/01/21 03:52:20;;;;;;;6.88;3.80;;;22.90;60.00;;;;;;5071271;28;20044;-70
2023/01/21 03:54:47;;;;;;;4.95;3.20;;;22.90;60.20;;;;;;5071316;28;20033;-69
2023/01/21 03:57:14;;;;;;;7.03;4.13;;;22.90;60.30;;;;;;5071063;28;20036;-70
2023/01/21 03:59:40;;;;;;;5.80;3.90;;;22.80;60.20;;;;;;5051946;28;20132;-70
2023/01/21 04:02:06;;;;;;;6.00;3.33;;;22.80;60.20;;;;;;5069785;28;20131;-70
2023/01/21 04:04:32;;;;;;;6.57;3.22;;;22.80;60.60;;;;;;5075072;28;20521;-70
2023/01/21 04:06:58;;;;;;;4.18;2.03;;;22.80;60.40;;;;;;5075525;28;20112;-70
2023/01/21 04:09:24;;;;;;;4.82;2.28;;;22.70;60.00;;;;;;5075062;28;20052;-70
2023/01/21 04:11:50;;;;;;;2.63;1.95;;;22.80;60.30;;;;;;5075153;28;20523;-70
2023/01/21 04:14:16;;;;;;;3.35;1.42;;;22.70;60.40;;;;;;5075118;28;20056;-70
2023/01/21 04:16:42;;;;;;;1.17;1.08;;;22.70;60.30;;;;;;5075191;28;20484;-70
2023/01/21 04:19:08;;;;;;;1.40;1.00;;;22.70;60.00;;;;;;5075149;28;20413;-68
2023/01/21 04:21:34;;;;;;;0.80;0.80;;;22.70;59.90;;;;;;5057209;28;20040;-70
2023/01/21 04:24:00;;;;;;;1.02;0.90;;;22.60;59.70;;;;;;5074832;28;20036;-70
2023/01/21 04:26:26;;;;;;;0.80;0.80;;;22.60;60.00;;;;;;5074949;28;20361;-70
2023/01/21 04:28:52;;;;;;;1.20;1.10;;;22.60;60.70;;;;;;5074707;28;20119;-70
2023/01/21 04:31:18;;;;;;;0.90;0.90;;;22.60;60.10;;;;;;5073471;28;20204;-70
2023/01/21 04:33:44;;;;;;;1.23;1.10;;;22.60;59.20;;;;;;5071969;28;20105;-70
2023/01/21 04:36:10;;;;;;;1.33;1.23;;;22.40;60.10;;;;;;5072129;28;20041;-70
2023/01/21 04:38:36;;;;;;;2.05;1.20;;;22.40;60.80;;;;;;5072002;28;20060;-70
2023/01/21 04:41:02;;;;;;;1.42;1.33;;;22.40;60.00;;;;;;5072149;28;20040;-70
2023/01/21 04:43:28;;;;;;;1.23;1.10;;;22.50;59.70;;;;;;5071943;28;20477;-69
2023/01/21 04:45:54;;;;;;;1.33;1.23;;;22.50;60.60;;;;;;5071966;28;20177;-70
2023/01/21 04:48:20;;;;;;;1.45;1.35;;;22.50;60.80;;;;;;5071933;28;20037;-70
2023/01/21 04:50:46;;;;;;;1.40;1.30;;;22.60;60.50;;;;;;5071918;28;20028;-70
2023/01/21 04:53:12;;;;;;;1.67;1.30;;;22.60;60.00;;;;;;5071623;28;20040;-70
2023/01/21 04:55:38;;;;;;;1.27;1.25;;;22.60;60.50;;;;;;5055068;28;20028;-70
2023/01/21 04:58:04;;;;;;;1.55;1.45;;;22.60;60.50;;;;;;5071573;28;20413;-70
2023/01/21 05:00:30;;;;;;;2.20;1.80;;;22.50;60.80;;;;;;5071525;28;20450;-70
2023/01/21 05:02:56;;;;;;;2.03;1.48;;;22.60;60.60;;;;;;5071686;28;20040;-70
2023/01/21 05:05:22;;;;;;;1.67;1.58;;;22.70;59.30;;;;;;5071509;28;20536;-70
2023/01/21 05:07:52;;;;;;;1.70;1.60;;;22.70;59.50;;;;;;5071475;28;20057;-70
2023/01/21 05:10:19;;;;;;;2.10;2.00;;;22.80;59.50;;;;;;5055062;28;20144;-69
2023/01/21 05:12:45;;;;;;;2.70;2.50;;;22.70;58.50;;;;;;5080223;28;20032;-70
2023/01/21 05:15:11;;;;;;;2.38;2.17;;;22.70;57.10;;;;;;5091464;28;20043;-70
2023/01/21 05:17:37;;;;;;;2.63;2.42;;;22.50;58.70;;;;;;5092025;28;20425;-70
2023/01/21 05:20:04;;;;;;;2.45;2.33;;;22.60;58.90;;;;;;5093916;28;20467;-72
2023/01/21 05:22:30;;;;;;;2.75;2.53;;;22.50;61.50;;;;;;5094212;28;20052;-71
2023/01/21 05:24:56;;;;;;;3.13;2.92;;;22.60;62.00;;;;;;5094080;28;20055;-70
2023/01/21 05:27:22;;;;;;;3.38;3.05;;;22.90;63.80;;;;;;5094023;28;20036;-70
2023/01/21 05:29:48;;;;;;;2.65;2.45;;;23.10;63.10;;;;;;5093831;28;20111;-68
2023/01/21 05:32:14;;;;;;;3.47;3.28;;;23.10;59.70;;;;;;5093991;28;20147;-69
2023/01/21 05:34:40;;;;;;;3.75;3.45;;;23.20;58.70;;;;;;5094091;28;20031;-70
2023/01/21 05:37:06;;;;;;;3.63;3.33;;;23.10;57.50;;;;;;5093993;28;20055;-69
2023/01/21 05:39:32;;;;;;;3.58;3.08;;;23.00;56.20;;;;;;5093637;28;20024;-69
2023/01/21 05:41:58;;;;;;;4.80;3.33;;;22.90;55.40;;;;;;5093665;28;20410;-69
2023/01/21 05:44:24;;;;;;;2.97;2.78;;;22.90;55.70;;;;;;5093344;28;20032;-69
2023/01/21 05:46:50;;;;;;;3.50;3.20;;;22.80;56.40;;;;;;5092983;28;20150;-69
2023/01/21 05:49:16;;;;;;;4.30;3.38;;;22.70;57.20;;;;;;5070153;28;20080;-69
2023/01/21 05:51:42;;;;;;;4.07;3.42;;;22.70;57.40;;;;;;5068741;28;20166;-69
2023/01/21 05:54:08;;;;;;;3.30;3.00;;;22.80;57.60;;;;;;5070463;28;20049;-69
2023/01/21 05:56:34;;;;;;;3.85;3.42;;;22.80;57.70;;;;;;5070763;28;20036;-70
2023/01/21 05:58:59;;;;;;;9.05;8.00;;;22.60;58.10;;;;;;5070556;28;20132;-69
2023/01/21 06:01:25;;;;;;;9.00;8.13;;;22.60;53.70;;;;;;5070524;28;20044;-70
2023/01/21 06:03:51;;;;;;;5.25;4.75;;;22.50;51.00;;;;;;5070294;28;20041;-70
2023/01/21 06:06:18;;;;;;;8.93;7.03;;;22.60;50.30;;;;;;5070312;28;20032;-70
2023/01/21 06:08:43;;;;;;;7.45;6.75;;;22.70;49.70;;;;;;5070042;28;20060;-70
2023/01/21 06:11:09;;;;;;;5.97;5.47;;;22.70;47.90;;;;;;5070290;28;20033;-71
2023/01/21 06:13:35;;;;;;;6.75;6.00;;;22.60;47.50;;;;;;5070248;28;20048;-70
2023/01/21 06:16:02;;;;;;;6.05;5.15;;;22.60;46.70;;;;;;5070255;28;20127;-69
2023/01/21 06:18:27;;;;;;;5.30;4.80;;;22.60;48.20;;;;;;5070162;28;20060;-70
2023/01/21 06:20:54;;;;;;;5.20;4.70;;;22.50;50.30;;;;;;5087533;28;20712;-71
2023/01/21 06:23:19;;;;;;;4.97;4.57;;;22.50;48.60;;;;;;5091559;28;20388;-70
2023/01/21 06:25:45;;;;;;;6.18;4.60;;;22.60;50.30;;;;;;5092217;28;20032;-70
2023/01/21 06:28:12;;;;;;;4.45;3.63;;;22.50;52.30;;;;;;5075000;28;20114;-70
2023/01/21 06:30:38;;;;;;;3.65;3.33;;;22.60;50.30;;;;;;5092535;28;20032;-70
2023/01/21 06:33:04;;;;;;;4.38;3.97;;;22.50;51.20;;;;;;5092636;28;20088;-71
2023/01/21 06:35:30;;;;;;;4.45;3.65;;;22.70;50.50;;;;;;5092780;28;20107;-72
2023/01/21 06:37:56;;;;;;;1.55;1.45;;;22.70;50.00;;;;;;5092924;28;20044;-74
2023/01/21 06:40:22;;;;;;;3.80;3.13;;;22.80;61.10;;;;;;5069651;28;20435;-75
2023/01/21 06:42:48;;;;;;;5.70;3.58;;;23.00;62.50;;;;;;5069709;28;20158;-74
2023/01/21 06:45:15;;;;;;;2.35;2.15;;;23.20;63.50;;;;;;5069443;28;20048;-72
2023/01/21 06:47:42;;;;;;;2.60;2.10;;;23.10;62.80;;;;;;5069183;28;20042;-72
2023/01/21 06:50:13;;;;;;;2.40;2.20;;;23.30;64.60;;;;;;5069196;28;20072;-74
2023/01/21 06:52:43;;;;;;;2.85;2.42;;;23.30;60.70;;;;;;5069561;28;20040;-73
2023/01/21 06:55:09;;;;;;;4.13;3.30;;;23.30;62.20;;;;;;5068880;28;20041;-73
2023/01/21 06:57:36;;;;;;;7.20;4.32;;;23.30;55.60;;;;;;5069011;28;20045;-73
2023/01/21 07:00:04;;;;;;;5.70;4.50;;;23.20;54.70;;;;;;5052275;28;20048;-75
2023/01/21 07:02:30;;;;;;;11.68;5.18;;;23.30;51.90;;;;;;5069449;28;20385;-73
2023/01/21 07:04:56;;;;;;;5.03;3.60;;;23.10;51.00;;;;;;5052504;28;20040;-74
2023/01/21 07:07:22;;;;;;;5.38;4.88;;;23.20;51.30;;;;;;5069131;28;20117;-71
2023/01/21 07:09:48;;;;;;;5.70;4.32;;;23.20;49.80;;;;;;5069246;28;20033;-74
2023/01/21 07:12:14;;;;;;;8.73;4.25;;;23.20;50.00;;;;;;5084827;28;20040;-76
2023/01/21 07:14:41;;;;;;;7.68;4.40;;;23.00;52.20;;;;;;5072765;28;20055;-74
2023/01/21 07:17:07;;;;;;;3.30;2.55;;;23.00;52.60;;;;;;5092262;28;20051;-75
2023/01/21 07:19:33;;;;;;;7.47;5.45;;;23.00;51.10;;;;;;5089973;28;20503;-74
2023/01/21 07:21:59;;;;;;;8.68;5.00;;;23.00;52.20;;;;;;5092263;28;20032;-74
2023/01/21 07:24:25;;;;;;;7.38;4.65;;;23.00;50.20;;;;;;5091843;28;20077;-74
2023/01/21 07:26:51;;;;;;;9.95;4.68;;;22.90;52.50;;;;;;5092228;28;20064;-75
2023/01/21 07:29:17;;;;;;;5.65;4.75;;;22.90;52.30;;;;;;5091754;28;20035;-74
2023/01/21 07:31:43;;;;;;;5.18;4.20;;;22.90;52.30;;;;;;5090774;28;20068;-73
2023/01/21 07:34:09;;;;;;;7.00;4.63;;;22.80;53.90;;;;;;5090553;28;20043;-76
2023/01/21 07:36:35;;;;;;;7.35;4.85;;;22.80;55.00;;;;;;5091730;28;20454;-73
2023/01/21 07:39:01;;;;;;;6.75;4.80;;;22.80;54.80;;;;;;5090579;28;20097;-71
2023/01/21 07:41:27;;;;;;;5.35;4.35;;;22.70;55.70;;;;;;5089010;28;20062;-70
2023/01/21 07:43:53;;;;;;;7.32;4.38;;;22.70;55.70;;;;;;5091062;28;20066;-71
2023/01/21 07:46:21;;;;;;;5.32;4.65;;;22.70;55.10;;;;;;5090670;28;20059;-70
2023/01/21 07:48:50;;;;;;;5.07;4.35;;;22.80;52.40;;;;;;5111487;28;20620;-71
2023/01/21 07:51:17;;;;;;;6.20;4.43;;;22.70;56.30;;;;;;5096352;28;20032;-70
2023/01/21 07:53:43;;;;;;;6.15;4.63;;;22.60;56.80;;;;;;5112064;28;20040;-72
2023/01/21 07:56:09;;;;;;;5.93;3.97;;;22.60;56.80;;;;;;5111971;28;20027;-73
2023/01/21 07:58:36;;;;;;;4.65;3.55;;;22.60;57.40;;;;;;5110693;28;20080;-74
2023/01/21 08:01:07;;;;;;;5.22;3.92;;;22.60;57.50;;;;;;5093766;28;20085;-75
2023/01/21 08:03:37;;;;;;;7.50;4.70;;;22.60;57.70;;;;;;5090023;28;20035;-74
2023/01/21 08:06:06;;;;;;;6.30;4.63;;;22.70;54.50;;;;;;5091374;28;20028;-73
2023/01/21 08:08:33;;;;;;;4.65;4.15;;;22.80;53.90;;;;;;5091384;28;20052;-73
2023/01/21 08:10:59;;;;;;;6.85;3.90;;;22.90;51.50;;;;;;5091408;28;20032;-75
2023/01/21 08:13:25;;;;;;;5.38;4.13;;;23.10;52.10;;;;;;5091438;28;20028;-71
2023/01/21 08:15:53;;;;;;;6.78;4.20;;;23.30;53.20;;;;;;5090224;28;20036;-74
2023/01/21 08:18:20;;;;;;;5.72;3.90;;;23.30;57.40;;;;;;5109675;28;20059;-74
2023/01/21 08:20:47;;;;;;;6.75;3.75;;;23.40;55.60;;;;;;5111644;28;20468;-73
2023/01/21 08:23:13;;;;;;;5.68;4.63;;;23.30;56.30;;;;;;5111707;28;20084;-74
2023/01/21 08:25:40;;;;;;;8.00;5.00;;;23.20;56.40;;;;;;5111576;28;20024;-73
2023/01/21 08:28:06;;;;;;;5.10;4.00;;;23.20;56.50;;;;;;5111341;28;20128;-74
2023/01/21 08:30:32;;;;;;;7.18;4.57;;;23.10;59.50;;;;;;5111345;28;20039;-77
2023/01/21 08:32:58;;;;;;;6.50;4.10;;;23.10;57.90;;;;;;5111412;28;20032;-74
2023/01/21 08:35:24;;;;;;;4.07;2.97;;;23.10;57.00;;;;;;5093256;28;20115;-75
2023/01/21 08:37:53;;;;;;;5.75;3.88;;;23.20;57.60;;;;;;5111412;28;20027;-75
2023/01/21 08:40:19;;;;;;;4.00;3.28;;;23.10;57.60;;;;;;5111111;28;20051;-75
2023/01/21 08:42:45;;;;;;;3.97;2.72;;;23.00;56.60;;;;;;5111295;28;20042;-75
2023/01/21 08:45:11;;;;;;;6.85;4.10;;;23.20;58.10;;;;;;5111241;28;20024;-75
2023/01/21 08:47:37;;;;;;;5.20;3.80;;;23.30;58.00;;;;;;5109938;28;20468;-73
2023/01/21 08:50:04;;;;;;;4.97;3.90;;;23.20;57.70;;;;;;5113947;28;20058;-74
2023/01/21 08:52:30;;;;;;;5.43;3.78;;;23.40;57.90;;;;;;5096372;28;20098;-75
2023/01/21 08:54:55;;;;;;;6.68;4.07;;;23.30;57.80;;;;;;5094805;28;20503;-74
2023/01/21 08:57:21;;;;;;;7.88;3.22;;;23.30;58.10;;;;;;5094673;28;20464;-73
2023/01/21 08:59:47;;;;;;;3.20;2.90;;;23.30;58.30;;;;;;5094778;28;20396;-73
2023/01/21 09:02:13;;;;;;;4.40;3.58;;;23.30;58.80;;;;;;5093438;28;20039;-72
2023/01/21 09:04:39;;;;;;;5.75;3.92;;;23.30;58.70;;;;;;5094899;28;20111;-74
2023/01/21 09:07:05;;;;;;;5.22;3.13;;;23.30;58.30;;;;;;5094687;28;20089;-73
2023/01/21 09:09:31;;;;;;;2.78;2.08;;;23.30;58.80;;;;;;5094388;28;20071;-77
2023/01/21 09:11:57;;;;;;;5.47;3.45;;;23.30;59.50;;;;;;5094136;28;20044;-77
2023/01/21 09:14:23;;;;;;;5.68;3.70;;;23.30;59.80;;;;;;5092766;28;20035;-74
2023/01/21 09:16:49;;;;;;;5.40;3.63;;;23.40;59.20;;;;;;5094285;28;20074;-73
2023/01/21 09:19:16;;;;;;;5.47;3.40;;;23.30;59.10;;;;;;5094343;28;20081;-74
2023/01/21 09:21:42;;;;;;;6.22;3.63;;;23.30;59.10;;;;;;5094018;28;20431;-74
2023/01/21 09:24:08;;;;;;;8.65;3.30;;;23.50;61.70;;;;;;5093767;28;20476;-74
2023/01/21 09:26:34;;;;;;;4.25;3.05;;;23.50;60.00;;;;;;5090955;28;20058;-74
2023/01/21 09:29:01;;;;;;;5.97;3.78;;;23.40;59.60;;;;;;5093937;28;20028;-73
2023/01/21 09:31:28;;;;;;;6.57;4.28;;;23.40;59.20;;;;;;5092208;28;20055;-72
2023/01/21 09:33:57;;;;;;;6.03;3.53;;;23.40;59.20;;;;;;5093953;28;20043;-74
2023/01/21 09:36:28;;;;;;;5.85;4.13;;;23.40;59.10;;;;;;5094218;28;20036;-74
2023/01/21 09:38:54;;;;;;;4.97;3.67;;;23.50;59.40;;;;;;5094317;28;20044;-72
2023/01/21 09:41:29;;;;;;;7.25;4.30;;;23.50;59.30;;;;;;5094231;28;20037;-74
2023/01/21 09:44:13;;;;;;;6.60;4.00;;;23.50;58.70;;;;;;5093834;28;20028;-74
2023/01/21 09:47:07;;;;;;;4.22;2.85;;;23.30;59.10;;;;;;5094279;28;20032;-73
2023/01/21 09:49:42;;;;;;;5.60;3.28;;;23.30;59.40;;;;;;5092631;28;20739;-73
2023/01/21 09:52:35;;;;;;;5.60;3.72;;;23.30;59.40;;;;;;5109969;28;20453;-73
2023/01/21 09:55:04;;;;;;;4.32;3.28;;;23.30;59.10;;;;;;5114257;28;20035;-72
2023/01/21 09:57:33;;;;;;;6.05;4.40;;;23.30;58.10;;;;;;5097966;28;20040;-76
2023/01/21 10:00:14;;;;;;;7.43;3.50;;;23.30;52.40;;;;;;5092988;28;20028;-78
2023/01/21 10:03:07;;;;;;;5.47;3.70;;;23.30;51.50;;;;;;5093331;28;20473;-75
2023/01/21 10:05:36;;;;;;;5.38;3.55;;;23.40;51.40;;;;;;5093564;28;20039;-74
2023/01/21 10:08:41;;;;;;;4.97;3.00;;;23.40;51.70;;;;;;5093473;28;20511;-76
2023/01/21 10:11:19;;;;;;;7.78;3.78;;;23.60;58.60;;;;;;5046868;28;20080;-77
2023/01/21 10:13:48;;;;;;;5.38;4.03;;;23.70;58.80;;;;;;5030812;28;20156;-75
2023/01/21 10:16:38;;;;;;;5.43;4.03;;;23.80;59.10;;;;;;5010547;28;20026;-75
2023/01/21 10:19:07;;;;;;;8.65;3.95;;;23.80;59.50;;;;;;5010641;28;20107;-75
2023/01/21 10:22:03;;;;;;;6.13;4.15;;;23.70;59.80;;;;;;5010319;28;20049;-76
2023/01/21 10:24:45;;;;;;;5.93;3.22;;;23.70;60.10;;;;;;4951969;29;20046;-77
2023/01/21 10:27:17;;;;;;;4.45;3.47;;;23.90;60.30;;;;;;4952243;28;20043;-76
2023/01/21 10:29:45;;;;;;;6.57;4.45;;;23.80;60.20;;;;;;4951965;29;20035;-75
2023/01/21 10:32:17;;;;;;;6.55;4.03;;;23.70;60.20;;;;;;4951840;29;20051;-75
2023/01/21 10:34:51;;;;;;;6.80;3.92;;;23.80;59.90;;;;;;4951754;29;20134;-75
2023/01/21 10:37:41;;;;;;;5.68;4.35;;;23.80;60.00;;;;;;4952204;29;20047;-74
2023/01/21 10:40:41;;;;;;;5.70;3.70;;;23.70;61.30;;;;;;4951897;28;20038;-73
2023/01/21 10:43:22;;;;;;;6.70;3.92;;;23.70;60.80;;;;;;4954535;28;20051;-73
2023/01/21 10:46:16;;;;;;;8.38;4.72;;;23.80;60.00;;;;;;4971488;28;20031;-75
2023/01/21 10:48:53;;;;;;;8.13;4.38;;;23.80;59.50;;;;;;5019140;28;20036;-72
2023/01/21 10:51:37;;;;;;;5.38;3.40;;;23.70;59.30;;;;;;5029500;28;20504;-75
2023/01/21 10:54:03;;;;;;;6.90;4.25;;;23.80;59.30;;;;;;5029659;28;20738;-73
2023/01/21 10:56:57;;;;;;;5.43;4.50;;;23.70;59.40;;;;;;5029682;28;20046;-75
2023/01/21 10:59:29;;;;;;;6.53;4.15;;;23.60;58.50;;;;;;5029672;28;20504;-72
2023/01/21 11:02:22;;;;;;;4.07;3.03;;;23.80;59.80;;;;;;5062340;28;20044;-73
2023/01/21 11:04:49;;;;;;;6.88;4.15;;;23.80;59.50;;;;;;5071724;28;20051;-75
2023/01/21 11:07:20;;;;;;;6.07;4.50;;;23.80;57.50;;;;;;5071395;28;20049;-76
2023/01/21 11:09:47;;;;;;;9.38;3.92;;;23.70;59.30;;;;;;5053980;28;20036;-75
2023/01/21 11:12:18;;;;;;;5.85;3.92;;;23.60;58.50;;;;;;5071262;28;20366;-75
2023/01/21 11:14:55;;;;;;;5.82;4.10;;;23.60;59.20;;;;;;5070376;28;20044;-76
2023/01/21 11:17:31;;;;;;;6.90;4.47;;;23.60;59.60;;;;;;5071715;28;20505;-79
2023/01/21 11:19:59;;;;;;;6.63;3.75;;;23.50;58.70;;;;;;5071978;28;20036;-76
2023/01/21 11:22:30;;;;;;;5.47;4.07;;;23.50;59.40;;;;;;5071895;28;20025;-76
2023/01/21 11:24:56;;;;;;;6.45;3.97;;;23.70;63.00;;;;;;5072208;28;20043;-73
2023/01/21 11:27:33;;;;;;;7.75;3.80;;;24.30;64.10;;;;;;5071518;28;20028;-75
2023/01/21 11:30:00;;;;;;;6.13;3.63;;;24.60;55.40;;;;;;5071444;28;20036;-77
2023/01/21 11:32:30;;;;;;;6.82;3.60;;;24.60;49.40;;;;;;5071056;28;20114;-72
2023/01/21 11:35:15;;;;;;;6.32;3.92;;;24.30;51.30;;;;;;5078425;28;20047;-73
2023/01/21 11:37:44;;;;;;;4.53;3.92;;;24.20;50.60;;;;;;5091683;28;20039;-74
2023/01/21 11:40:30;;;;;;;6.28;4.18;;;24.20;51.70;;;;;;5091749;28;20118;-74
2023/01/21 11:42:57;;;;;;;6.22;3.50;;;24.30;54.50;;;;;;5121776;27;20469;-73
2023/01/21 11:45:51;;;;;;;6.68;4.35;;;24.30;52.70;;;;;;5091294;28;20043;-72
2023/01/21 11:48:20;;;;;;;10.48;2.92;;;24.30;54.30;;;;;;5020357;28;20057;-74
2023/01/21 11:50:46;;;;;;;5.35;2.90;;;24.40;58.90;;;;;;5009221;28;20034;-72
2023/01/21 11:53:16;;;;;;;3.30;2.80;;;24.30;59.50;;;;;;5028308;28;20049;-72
2023/01/21 11:55:51;;;;;;;8.75;3.33;;;24.40;58.40;;;;;;5012425;28;20486;-74
2023/01/21 11:58:38;;;;;;;5.40;3.38;;;24.20;58.10;;;;;;5028969;28;20038;-74
2023/01/21 12:01:08;;;;;;;6.65;4.32;;;24.30;58.10;;;;;;5012231;28;20037;-75
2023/01/21 12:03:44;;;;;;;10.00;3.67;;;24.20;54.40;;;;;;5028718;28;20060;-76
2023/01/21 12:06:18;;;;;;;5.13;4.15;;;24.10;57.80;;;;;;5028719;28;20565;-74
2023/01/21 12:08:49;;;;;;;5.88;3.65;;;24.10;58.10;;;;;;5028319;28;20129;-73
2023/01/21 12:11:20;;;;;;;6.00;3.58;;;24.10;58.40;;;;;;5028741;28;20064;-74
2023/01/21 12:13:52;;;;;;;7.18;3.97;;;24.00;56.80;;;;;;5028681;28;20471;-73
2023/01/21 12:16:46;;;;;;;6.80;4.13;;;24.00;58.40;;;;;;5012277;28;20045;-74
2023/01/21 12:19:26;;;;;;;5.88;4.20;;;23.90;58.90;;;;;;5028641;28;20414;-73
2023/01/21 12:22:12;;;;;;;7.47;3.85;;;23.90;58.60;;;;;;5028743;28;20033;-73
2023/01/21 12:25:16;;;;;;;8.10;3.90;;;23.90;57.70;;;;;;5031013;28;20033;-72
2023/01/21 12:28:00;;;;;;;4.30;3.25;;;23.90;59.30;;;;;;5052599;28;20052;-75
2023/01/21 12:30:55;;;;;;;4.63;3.78;;;23.90;59.40;;;;;;5035875;28;20119;-74
2023/01/21 12:33:30;;;;;;;8.57;4.13;;;23.90;59.60;;;;;;4992885;28;20112;-74
2023/01/21 12:36:23;;;;;;;6.32;3.78;;;23.80;59.30;;;;;;4993194;28;20043;-74
2023/01/21 12:39:16;;;;;;;5.25;3.13;;;23.80;59.80;;;;;;4993059;28;20092;-73
2023/01/21 12:41:50;;;;;;;5.05;3.10;;;23.80;60.00;;;;;;4973635;28;20050;-74
2023/01/21 12:44:30;;;;;;;5.57;3.17;;;23.90;60.00;;;;;;4973430;28;20131;-73
2023/01/21 12:47:01;;;;;;;4.72;2.72;;;23.80;59.80;;;;;;4967965;28;20051;-73
2023/01/21 12:49:32;;;;;;;4.72;3.22;;;23.90;59.90;;;;;;4953945;29;20039;-74
2023/01/21 12:52:04;;;;;;;6.40;3.47;;;24.10;59.90;;;;;;4953904;29;20050;-74
2023/01/21 12:55:10;;;;;;;6.50;4.07;;;23.90;59.70;;;;;;4954008;29;20031;-74
2023/01/21 12:57:51;;;;;;;7.30;4.60;;;23.80;59.80;;;;;;4915596;29;20047;-74
2023/01/21 13:00:28;;;;;;;8.68;5.72;;;24.00;60.00;;;;;;4915666;29;20035;-73
2023/01/21 13:03:09;;;;;;;8.13;4.85;;;23.90;59.90;;;;;;4915469;29;20076;-73
2023/01/21 13:06:08;;;;;;;6.82;5.38;;;24.00;59.90;;;;;;4915864;29;20122;-77
2023/01/21 13:09:12;;;;;;;10.10;6.30;;;24.00;59.90;;;;;;4915546;29;20482;-76